Arctic Village Airport
PARC : rendu visible

Aérodrome :











RETROUVEZ-NOUS SUR...

 
LOGIN :

S'inscrire | Disclaimer

   EN    FR    IT 

 









Légende :    VFR   VFR Marginal   IFR   IFR Intensif   IFR Très Intensif
Visi : 
Plafond : 
>= 8 km
>= 3000ft
5 à 8 km
1000 à 3000 ft
1500m à 5 km
500 à 1000 ft
800 à 1500m
200 à 500 ft
< 800m
< 200 ft
Symboles :   Orages  Brouillard  Fortes neiges  Fortes précipitations  Vent > 20 kt






- Altitude de l'aérodrome : 2092 ft
- Code IATA : ARC


PARC - Arctic Village

DERNIER METAR :
  • 291756Z AUTO 02012KT 10SM OVC090 M30/M34 A2926 RMK AO2 SLP015 T13001339 11300 21350 56027 FZRANO

METARs EXPIRÉS :
  • 291656Z AUTO 02009KT 10SM SCT100 M32/M35 A2929 RMK AO2 SLP026 T13171350 FZRANO
  • 291556Z AUTO 36011KT 10SM FEW110 M32/M36 A2932 RMK AO2 SLP038 T13171356 FZRANO

TAF N/A



MET'MAP, la Météo Aéronautique d'un coup d'oeil ! - Copyright ORBIFLY Décembre 2007 - Disclaimer

ORBIFLY MET'MAP TEAM :

Programmation & Développement : Alexandra Zaïnal
Sur une idée originale de : Baudouin d'Aumeries
Assistance à la programmation : Marc-Olivier Méhu
Soutien technique & logistique : Manuel Goepfert

Contact : metmap@orbifly.com




SOURCES & CREDITS :

   NOAA       Earth
Advisory